Latest Coastal Weather Observations for Creal Reef

IDQ60701

Issued at 11:31 pm EST Tuesday 15 October 2019 (issued every 10 minutes, with the page automatically refreshed every 10 minutes)

About coastal observations | Map of coastal stations | Coastal observations for QLD | Marine services | Other Formats
Station Details ID: 200736 Name: CREAL REEF Lat: -20.53 Lon: 150.38 Height: 1.7 m
Data from the previous 72 hours. | See also: Recent months for locations in Queensland
Date/Time
EST
Wind Sea
Height
m
Swell Vis
km
Cloud Weather Temp
°C
Press
hPa
Rain since
9am
mm
Dir  Spd
kts
Gust
kts
Height
m
Period
s
Dir
15/11:30pm N 18 21 - - - - - - - 24.0 1012.0 -
15/11:06pm NE 17 21 - - - - - - - 23.7 1012.6 -
15/11:00pm NNE 17 21 - - - - - - - 23.7 1012.3 -
15/10:52pm ENE 8 15 - - - - - - - 23.8 1013.5 -
15/10:30pm SSE 8 10 - - - - - - - 24.1 1015.5 -
15/10:00pm SSE 7 12 - - - - - - - 24.0 1015.8 -
15/09:54pm NNE 7 12 - - - - - - - 23.9 1015.8 -
15/09:30pm N 13 15 - - - - - - - 24.1 1013.6 -
15/09:00pm N 13 15 - - - - - - - 24.1 1013.4 -
15/08:30pm N 12 14 - - - - - - - 24.0 1013.2 -
15/08:00pm N 14 15 - - - - - - - 24.0 1013.0 -
15/07:30pm N 14 16 - - - - - - - 24.0 1012.6 -
15/07:00pm NNW 16 17 - - - - - - - 23.8 1011.9 -
15/06:30pm NNW 18 20 - - - - - - - 24.0 1011.5 -
15/06:00pm NNW 18 20 - - - - - - - 23.9 1011.3 -
15/05:30pm NW 17 19 - - - - - - - 23.9 1011.1 -
15/05:00pm NNW 15 16 - - - - - - - 24.0 1011.5 -
15/04:30pm NNW 13 15 - - - - - - - 24.0 1011.6 -
15/04:00pm NNW 14 16 - - - - - - - 24.0 1011.7 -
15/03:30pm NNW 12 14 - - - - - - - 24.0 1012.0 -
15/03:00pm NNW 13 14 - - - - - - - 24.3 1012.4 -
15/02:30pm NNW 12 14 - - - - - - - 24.3 1012.7 -
15/02:00pm NNW 11 14 - - - - - - - 24.1 1013.0 -
15/01:30pm NNW 12 14 - - - - - - - 24.2 1013.2 -
15/01:00pm NNW 12 14 - - - - - - - 24.1 1013.6 -
15/12:30pm NNW 13 15 - - - - - - - 24.0 1014.1 -
15/12:00pm NNW 13 14 - - - - - - - 24.1 1014.7 -
15/11:30am NNW 13 15 - - - - - - - 24.0 1014.9 -
15/11:00am NNW 13 14 - - - - - - - 24.2 1015.1 -
15/10:30am NNW 11 13 - - - - - - - 24.0 1015.7 -
15/10:00am NNW 12 14 - - - - - - - 24.0 1016.1 -
15/09:30am NNW 13 14 - - - - - - - 23.9 1016.1 -
15/09:00am N 13 15 - - - - - - - 23.9 1016.1 -
15/08:30am N 13 16 - - - - - - - 23.8 1015.9 -
15/08:00am N 13 15 - - - - - - - 23.9 1015.8 -
15/07:30am N 13 15 - - - - - - - 23.9 1015.7 -
15/07:00am N 13 15 - - - - - - - 23.9 1015.3 -
15/06:30am NNE 14 15 - - - - - - - 23.7 1015.0 -
15/06:00am NNE 13 15 - - - - - - - 23.7 1014.8 -
15/05:30am N 13 15 - - - - - - - 23.7 1014.5 -
15/05:00am NNE 15 16 - - - - - - - 23.6 1014.3 -
15/04:30am NNE 16 18 - - - - - - - 23.5 1013.9 -
15/04:00am NNE 15 17 - - - - - - - 23.5 1014.0 -
15/03:30am NNE 16 19 - - - - - - - 23.3 1013.6 -
15/03:00am NNE 15 17 - - - - - - - 23.4 1014.0 -
15/02:30am NNE 14 16 - - - - - - - 23.5 1014.2 -
15/02:00am NNE 14 16 - - - - - - - 23.3 1014.6 -
15/01:30am NNE 13 15 - - - - - - - 23.5 1015.2 -
15/01:00am NE 13 14 - - - - - - - 23.5 1015.6 -
15/12:30am NE 11 14 - - - - - - - 23.4 1015.9 -
15/12:00am NE 11 13 - - - - - - - 23.4 1016.4 -
 
Date/Time
EST
Wind Sea
Height
m
Swell Vis
km
Cloud Weather Temp
°C
Press
hPa
Rain since
9am
mm
Dir  Spd
kts
Gust
kts
Height
m
Period
s
Dir
14/11:30pm NE 11 13 - - - - - - - 23.5 1016.5 -
14/11:00pm NE 11 13 - - - - - - - 23.7 1016.5 -
14/10:30pm NE 11 13 - - - - - - - 23.5 1016.6 -
14/10:00pm NE 12 13 - - - - - - - 23.6 1016.6 -
14/09:30pm NE 11 14 - - - - - - - 23.7 1016.7 -
14/09:00pm NE 12 13 - - - - - - - 23.8 1016.7 -
14/08:30pm NE 10 12 - - - - - - - 23.7 1016.6 -
14/08:00pm NE 11 12 - - - - - - - 23.8 1016.3 -
14/07:30pm NE 11 12 - - - - - - - 23.7 1016.0 -
14/07:00pm NE 10 12 - - - - - - - 23.7 1015.8 -
14/06:30pm NE 9 11 - - - - - - - 23.8 1015.6 -
14/06:00pm NE 9 11 - - - - - - - 23.8 1015.3 -
14/05:30pm NE 9 11 - - - - - - - 23.7 1015.0 -
14/05:00pm NE 10 11 - - - - - - - 23.8 1014.8 -
14/04:30pm NE 10 11 - - - - - - - 23.9 1014.6 -
14/04:00pm NE 9 11 - - - - - - - 23.8 1014.6 -
14/03:30pm NE 8 9 - - - - - - - 23.8 1014.9 -
14/03:00pm NE 8 9 - - - - - - - 23.8 1014.9 -
14/02:30pm NE 8 9 - - - - - - - 23.8 1015.1 -
14/02:00pm ENE 8 10 - - - - - - - 23.8 1015.3 -
14/01:30pm ENE 8 9 - - - - - - - 23.7 1015.8 -
14/01:00pm ENE 8 11 - - - - - - - 23.8 1016.2 -
14/12:30pm E 8 10 - - - - - - - 23.9 1016.8 -
14/12:00pm ENE 8 11 - - - - - - - 23.9 1017.2 -
14/11:30am E 8 11 - - - - - - - 23.8 1017.4 -
14/11:00am E 8 9 - - - - - - - 24.0 1017.7 -
14/10:30am E 8 10 - - - - - - - 23.9 1017.9 -
14/10:00am E 9 11 - - - - - - - 23.9 1018.2 -
14/09:30am E 9 11 - - - - - - - 23.9 1018.3 -
14/09:00am ENE 9 11 - - - - - - - 23.9 1018.3 -
14/08:30am ENE 9 10 - - - - - - - 23.8 1018.4 -
14/08:00am ENE 9 10 - - - - - - - 23.8 1018.2 -
14/07:30am ENE 9 11 - - - - - - - 23.7 1017.9 -
14/07:00am E 9 10 - - - - - - - 23.8 1017.6 -
14/06:30am E 9 11 - - - - - - - 23.7 1017.3 -
14/06:00am E 10 11 - - - - - - - 23.4 1017.0 -
14/05:30am E 11 13 - - - - - - - 23.5 1016.6 -
14/05:00am E 10 11 - - - - - - - 23.4 1016.4 -
14/04:30am ENE 10 12 - - - - - - - 23.6 1015.9 -
14/04:00am ENE 11 13 - - - - - - - 23.3 1015.7 -
14/03:30am ENE 12 13 - - - - - - - 23.6 1015.7 -
14/03:00am ENE 12 14 - - - - - - - 23.6 1015.6 -
14/02:30am NE 12 13 - - - - - - - 23.8 1015.6 -
14/02:00am ENE 13 15 - - - - - - - 23.8 1015.7 -
14/01:30am ENE 14 15 - - - - - - - 23.8 1015.9 -
14/01:00am ENE 13 15 - - - - - - - 23.7 1016.2 -
14/12:30am ENE 13 15 - - - - - - - 23.9 1016.3 -
14/12:00am ENE 13 15 - - - - - - - 23.9 1016.5 -
 
Date/Time
EST
Wind Sea
Height
m
Swell Vis
km
Cloud Weather Temp
°C
Press
hPa
Rain since
9am
mm
Dir  Spd
kts
Gust
kts
Height
m
Period
s
Dir
13/11:30pm ENE 13 14 - - - - - - - 24.0 1016.8 -
13/11:00pm ENE 12 14 - - - - - - - 23.8 1016.7 -
13/10:30pm E 13 14 - - - - - - - 23.7 1016.6 -
13/10:00pm ENE 13 15 - - - - - - - 23.9 1016.5 -
13/09:30pm E 13 14 - - - - - - - 23.6 1016.4 -
13/09:00pm E 13 15 - - - - - - - 23.7 1016.1 -
13/08:30pm E 13 14 - - - - - - - 23.5 1015.9 -
13/08:00pm E 11 13 - - - - - - - 23.7 1015.6 -
13/07:30pm E 11 13 - - - - - - - 23.6 1015.2 -
13/07:00pm E 11 11 - - - - - - - 23.7 1014.8 -
13/06:30pm ENE 10 12 - - - - - - - 24.2 1014.4 -
13/06:00pm E 9 10 - - - - - - - 24.1 1014.0 -
13/05:30pm E 6 7 - - - - - - - 24.5 1013.7 -
13/05:00pm ESE 5 6 - - - - - - - 24.1 1013.5 -
13/04:30pm ESE 5 5 - - - - - - - 24.3 1013.5 -
13/04:00pm SSE 3 5 - - - - - - - 24.6 1013.6 -
13/03:30pm S 3 4 - - - - - - - 24.9 1013.8 -
13/03:00pm SSE 4 5 - - - - - - - 24.7 1014.0 -
13/02:30pm SSE 4 5 - - - - - - - 24.7 1014.2 -
13/02:00pm SSW 1 3 - - - - - - - 25.8 1014.5 -
13/01:30pm SW 3 4 - - - - - - - 25.8 1014.6 -
13/01:00pm CALM 0 0 - - - - - - - 25.0 1014.8 -
13/12:30pm CALM 0 0 - - - - - - - 25.0 1015.0 -
13/12:00pm CALM 0 0 - - - - - - - 26.0 1015.5 -
13/11:30am CALM 0 0 - - - - - - - 25.1 1016.0 -
13/11:00am CALM 0 0 - - - - - - - 24.8 1016.3 -
13/10:30am CALM 0 0 - - - - - - - 24.6 1016.4 -
13/10:00am CALM 0 0 - - - - - - - 24.5 1016.6 -
13/09:30am CALM 0 0 - - - - - - - 24.6 1016.7 -
13/09:00am CALM 0 0 - - - - - - - 24.2 1016.6 -
13/08:30am CALM 0 3 - - - - - - - 24.1 1016.3 -
13/08:00am CALM 0 0 - - - - - - - 24.3 1016.0 -
13/07:30am CALM 0 0 - - - - - - - 24.1 1015.6 -
13/07:00am CALM 0 0 - - - - - - - 23.7 1015.0 -
13/06:30am CALM 0 0 - - - - - - - 23.5 1014.7 -
13/06:00am CALM 0 0 - - - - - - - 23.5 1014.3 -
13/05:30am N 4 5 - - - - - - - 23.2 1013.8 -
13/05:00am NNE 5 6 - - - - - - - 23.3 1013.5 -
13/04:30am NNE 5 6 - - - - - - - 23.2 1013.1 -
13/04:00am NNE 6 6 - - - - - - - 23.3 1012.7 -
13/03:30am N 5 6 - - - - - - - 23.2 1012.6 -
13/03:00am N 4 4 - - - - - - - 23.2 1012.5 -
13/02:30am ENE 3 4 - - - - - - - 23.3 1012.6 -
13/02:00am CALM 0 5 - - - - - - - 23.4 1012.8 -
13/01:30am NE 3 4 - - - - - - - 23.3 1013.0 -
13/01:00am NNE 6 6 - - - - - - - 23.5 1013.2 -
13/12:30am NNE 5 6 - - - - - - - 23.4 1013.3 -
13/12:00am NE 3 4 - - - - - - - 23.5 1013.5 -

Other formats

Comma delimited format used in spreadsheet applications
http://www.bom.gov.au/fwo/IDQ60701/IDQ60701.94371.axf

JavaScript Object Notation format (JSON) in row-major order
http://www.bom.gov.au/fwo/IDQ60701/IDQ60701.94371.json

Data quality

Most of these data are generated automatically and are frequently updated. Quality checks on data are not normally performed. It is possible for incorrect values to appear. Refer to information at About Latest Weather Observations and please check the disclaimer before using these data.